createdAt,value
2023-03-21T00:01:54.097Z,101173.41
2023-03-21T00:04:24.122Z,101169.00
2023-03-21T00:06:51.767Z,101170.69
2023-03-21T00:09:20.387Z,101157.81
2023-03-21T00:11:48.470Z,101161.13
2023-03-21T00:14:18.883Z,101151.41
2023-03-21T00:16:53.035Z,101149.81
2023-03-21T00:19:21.877Z,101152.34
2023-03-21T00:22:06.560Z,101140.25
2023-03-21T00:24:36.861Z,101142.97
2023-03-21T00:27:44.851Z,101141.19
2023-03-21T00:29:56.217Z,101136.63
2023-03-21T00:32:24.048Z,101142.88
2023-03-21T00:35:11.819Z,101132.19
2023-03-21T00:37:40.168Z,101133.88
2023-03-21T00:40:23.004Z,101142.44
2023-03-21T00:42:53.082Z,101135.69
2023-03-21T00:45:22.313Z,101139.09
2023-03-21T00:47:55.951Z,101132.16
2023-03-21T00:50:24.212Z,101139.34
2023-03-21T00:52:51.927Z,101126.19
2023-03-21T00:55:20.151Z,101122.94
2023-03-21T00:57:56.122Z,101133.09
2023-03-21T01:00:27.786Z,101139.19
2023-03-21T01:03:08.499Z,101143.69
2023-03-21T01:06:04.494Z,101141.13
2023-03-21T01:08:44.922Z,101134.00
2023-03-21T01:11:21.280Z,101132.38
2023-03-21T01:13:54.927Z,101133.41
2023-03-21T01:16:27.520Z,101129.00
2023-03-21T01:18:56.128Z,101125.59
2023-03-21T01:21:23.821Z,101135.03
2023-03-21T01:23:52.084Z,101116.03
2023-03-21T01:26:19.989Z,101123.75
2023-03-21T01:28:47.410Z,101128.09
2023-03-21T01:31:17.554Z,101116.78
2023-03-21T01:33:45.605Z,101115.19
2023-03-21T01:36:24.068Z,101110.88
2023-03-21T01:38:54.945Z,101109.16
2023-03-21T01:41:44.826Z,101105.75
2023-03-21T01:44:28.921Z,101098.59
2023-03-21T01:47:09.745Z,101088.28
2023-03-21T01:49:46.398Z,101081.28
2023-03-21T01:52:36.924Z,101077.06
2023-03-21T01:55:13.620Z,101072.63
2023-03-21T01:58:05.830Z,101067.34
2023-03-21T02:01:04.855Z,101050.91
2023-03-21T02:03:51.034Z,101053.56
2023-03-21T02:06:47.048Z,101057.94
2023-03-21T02:09:35.636Z,101048.31
2023-03-21T02:12:05.299Z,101055.34
2023-03-21T02:14:36.064Z,101057.97
2023-03-21T02:17:34.671Z,101042.19
2023-03-21T02:20:25.400Z,101046.41
2023-03-21T02:23:12.580Z,101051.03
2023-03-21T02:25:39.998Z,101044.91
2023-03-21T02:28:16.822Z,101033.69
2023-03-21T02:31:03.029Z,101027.59
2023-03-21T02:33:50.810Z,101033.50
2023-03-21T02:36:49.422Z,101025.59
2023-03-21T02:39:36.316Z,101024.72
2023-03-21T02:42:18.780Z,101025.56
2023-03-21T02:44:56.726Z,101019.47
2023-03-21T02:47:43.859Z,101015.13
2023-03-21T02:50:14.794Z,101011.66
2023-03-21T02:52:47.198Z,101023.88
2023-03-21T02:55:22.442Z,101015.28
2023-03-21T02:57:56.939Z,101011.84
2023-03-21T03:00:31.435Z,100999.66
2023-03-21T03:03:09.319Z,101000.50
2023-03-21T03:05:51.067Z,100998.00
2023-03-21T03:08:43.235Z,101005.78
2023-03-21T03:11:24.204Z,100997.94
2023-03-21T03:13:51.826Z,101015.28
2023-03-21T03:16:36.983Z,100997.84
2023-03-21T03:19:10.261Z,100994.25
2023-03-21T03:21:54.840Z,101011.75
2023-03-21T03:24:31.415Z,101011.63
2023-03-21T03:27:17.873Z,101007.31
2023-03-21T03:29:48.432Z,100997.72
2023-03-21T03:32:27.327Z,100984.59
2023-03-21T03:34:56.470Z,100978.56
2023-03-21T03:37:31.626Z,100961.13
2023-03-21T03:40:11.644Z,100966.28
2023-03-21T03:42:52.570Z,100986.31
2023-03-21T03:45:36.518Z,101008.16
2023-03-21T03:48:13.521Z,100998.59
2023-03-21T03:50:44.092Z,100998.56
2023-03-21T03:53:35.394Z,101004.72
2023-03-21T03:56:07.138Z,101010.81
2023-03-21T03:58:45.304Z,101024.84
2023-03-21T04:01:15.504Z,101029.16
2023-03-21T04:03:50.753Z,101034.38
2023-03-21T04:06:22.171Z,101033.63
2023-03-21T04:08:52.151Z,101023.13
2023-03-21T04:11:19.852Z,101004.00
2023-03-21T04:13:52.071Z,100991.78
2023-03-21T04:16:24.410Z,100997.16
2023-03-21T04:18:52.573Z,101003.28
2023-03-21T04:21:21.733Z,100990.16
2023-03-21T04:23:49.198Z,101000.59
2023-03-21T04:26:16.821Z,100995.31
2023-03-21T04:28:54.832Z,101003.22
2023-03-21T04:31:27.443Z,100993.66
2023-03-21T04:34:12.575Z,101004.94
2023-03-21T04:36:47.397Z,100999.59
2023-03-21T04:39:16.259Z,100996.16
2023-03-21T04:41:47.177Z,101001.38
2023-03-21T04:44:16.782Z,100999.66
2023-03-21T04:46:45.365Z,100995.31
2023-03-21T04:49:13.685Z,100997.97
2023-03-21T04:51:45.251Z,100999.66
2023-03-21T04:54:18.377Z,100990.13
2023-03-21T04:56:45.890Z,100977.97
2023-03-21T04:59:15.866Z,100986.78
2023-03-21T05:01:44.039Z,100986.69
2023-03-21T05:04:14.284Z,100976.22
2023-03-21T05:06:45.298Z,100985.78
2023-03-21T05:09:13.683Z,100993.66
2023-03-21T05:11:42.450Z,100993.66
2023-03-21T05:14:15.998Z,100989.44
2023-03-21T05:16:55.756Z,100992.03
2023-03-21T05:19:35.244Z,100986.72
2023-03-21T05:22:06.765Z,100987.50
2023-03-21T05:24:37.468Z,100977.06
2023-03-21T05:27:06.161Z,100977.94
2023-03-21T05:29:41.151Z,100968.38
2023-03-21T05:32:09.424Z,100975.31
2023-03-21T05:34:36.865Z,100965.72
2023-03-21T05:37:04.846Z,100966.69
2023-03-21T05:39:58.223Z,100979.75
2023-03-21T05:42:32.620Z,100982.53
2023-03-21T05:45:06.237Z,100966.69
2023-03-21T05:47:35.540Z,100959.06
2023-03-21T05:50:05.001Z,100961.56
2023-03-21T05:52:33.727Z,100964.09
2023-03-21T05:55:06.204Z,100958.81
2023-03-21T05:57:39.210Z,100963.22
2023-03-21T06:00:09.899Z,100962.38
2023-03-21T06:02:44.116Z,100957.09
2023-03-21T06:05:32.649Z,100956.19
2023-03-21T06:08:00.362Z,100963.19
2023-03-21T06:10:28.194Z,100957.84
2023-03-21T06:12:55.928Z,100963.97
2023-03-21T06:15:34.316Z,100966.66
2023-03-21T06:18:10.706Z,100964.97
2023-03-21T06:20:41.016Z,100967.66
2023-03-21T06:23:11.946Z,100970.19
2023-03-21T06:25:39.600Z,100969.31
2023-03-21T06:28:07.305Z,100968.53
2023-03-21T06:30:40.010Z,100967.69
2023-03-21T06:33:22.849Z,100974.72
2023-03-21T06:35:55.359Z,100978.25
2023-03-21T06:38:23.833Z,100975.75
2023-03-21T06:40:51.750Z,100972.25
2023-03-21T06:43:19.453Z,100969.69
2023-03-21T06:45:47.223Z,100975.81
2023-03-21T06:48:14.986Z,100971.44
2023-03-21T06:50:52.157Z,100965.44
2023-03-21T06:53:25.133Z,100957.69
2023-03-21T06:56:18.687Z,100954.28
2023-03-21T06:58:46.760Z,100956.03
2023-03-21T07:01:33.152Z,100960.44
2023-03-21T07:04:06.316Z,100958.78
2023-03-21T07:06:34.394Z,100957.13
2023-03-21T07:09:03.282Z,100962.44
2023-03-21T07:11:33.504Z,100962.44
2023-03-21T07:14:01.676Z,100967.63
2023-03-21T07:16:29.360Z,100969.41
2023-03-21T07:18:57.146Z,100974.69
2023-03-21T07:21:24.757Z,100973.88
2023-03-21T07:23:52.260Z,100974.00
2023-03-21T07:26:19.822Z,100969.69
2023-03-21T07:28:48.324Z,100978.56
2023-03-21T07:31:17.632Z,100989.31
2023-03-21T07:33:45.495Z,100990.34
2023-03-21T07:36:15.612Z,100992.94
2023-03-21T07:38:44.492Z,100995.56
2023-03-21T07:41:12.892Z,100992.88
2023-03-21T07:43:41.076Z,101005.13
2023-03-21T07:46:11.319Z,100997.28
2023-03-21T07:48:45.037Z,101006.94
2023-03-21T07:51:12.700Z,101006.97
2023-03-21T07:53:42.067Z,101006.09
2023-03-21T07:56:10.097Z,100999.03
2023-03-21T07:58:37.546Z,101006.84
2023-03-21T08:01:05.337Z,101011.22
2023-03-21T08:03:33.946Z,101013.84
2023-03-21T08:06:01.884Z,101009.59
2023-03-21T08:08:29.441Z,101011.19
2023-03-21T08:10:57.048Z,101016.28
2023-03-21T08:13:26.113Z,101020.69
2023-03-21T08:15:54.009Z,101019.06
2023-03-21T08:18:21.743Z,101030.44
2023-03-21T08:20:57.701Z,101023.50
2023-03-21T08:23:26.028Z,101030.50
2023-03-21T08:25:54.639Z,101036.66
2023-03-21T08:28:23.415Z,101034.91
2023-03-21T08:30:51.117Z,101030.47
2023-03-21T08:33:19.167Z,101030.47
2023-03-21T08:35:46.926Z,101022.59
2023-03-21T08:38:14.719Z,101022.19
2023-03-21T08:40:42.316Z,101031.53
2023-03-21T08:43:09.886Z,101028.63
2023-03-21T08:45:37.599Z,101018.97
2023-03-21T08:48:05.330Z,101012.81
2023-03-21T08:50:32.790Z,101019.47
2023-03-21T08:53:00.417Z,101019.94
2023-03-21T08:55:28.069Z,101013.34
2023-03-21T08:57:55.894Z,101024.50
2023-03-21T09:00:23.725Z,101019.53
2023-03-21T09:02:52.626Z,101009.94
2023-03-21T09:05:21.289Z,101010.69
2023-03-21T09:07:49.827Z,101019.44
2023-03-21T09:10:21.964Z,101014.00
2023-03-21T09:12:52.353Z,101017.66
2023-03-21T09:15:21.810Z,101016.19
2023-03-21T09:17:53.153Z,101010.38
2023-03-21T09:20:22.725Z,101010.84
2023-03-21T09:22:52.319Z,101014.28
2023-03-21T09:25:20.856Z,101016.28
2023-03-21T09:27:48.466Z,101012.22
2023-03-21T09:30:19.447Z,101019.31
2023-03-21T09:32:48.994Z,101018.25
2023-03-21T09:35:20.949Z,101017.19
2023-03-21T09:37:50.064Z,101020.22
2023-03-21T09:40:23.326Z,101026.78
2023-03-21T09:43:10.620Z,101039.59
2023-03-21T09:45:49.871Z,101026.09
2023-03-21T09:48:58.031Z,101026.13
2023-03-21T09:51:31.768Z,101027.09
2023-03-21T09:54:06.833Z,101036.75
2023-03-21T09:56:38.660Z,101020.88
2023-03-21T09:59:10.692Z,101038.13
2023-03-21T10:01:45.653Z,101035.22
2023-03-21T10:04:17.845Z,101029.47
2023-03-21T10:06:54.420Z,101025.47
2023-03-21T10:09:24.707Z,101025.22
2023-03-21T10:11:55.670Z,101035.31
2023-03-21T10:14:33.249Z,101028.84
2023-03-21T10:17:30.533Z,101022.44
2023-03-21T10:20:13.315Z,101025.78
2023-03-21T10:22:41.658Z,101022.25
2023-03-21T10:25:24.712Z,101035.19
2023-03-21T10:27:52.996Z,101032.66
2023-03-21T10:30:42.419Z,101029.94
2023-03-21T10:33:15.889Z,101030.41
2023-03-21T10:35:47.068Z,101012.75
2023-03-21T10:38:21.281Z,101010.50
2023-03-21T10:40:48.806Z,101008.53
2023-03-21T10:43:27.242Z,101009.28
2023-03-21T10:45:55.776Z,101007.56
2023-03-21T10:48:24.493Z,101002.94
2023-03-21T10:50:54.948Z,101004.19
2023-03-21T10:53:42.623Z,100992.97
2023-03-21T10:56:12.277Z,100998.59
2023-03-21T10:58:45.478Z,100997.06
2023-03-21T11:01:41.291Z,100996.50
2023-03-21T11:04:16.147Z,100985.72
2023-03-21T11:06:50.316Z,100975.06
2023-03-21T11:09:21.943Z,100997.63
2023-03-21T11:12:03.197Z,100996.38
2023-03-21T11:14:34.136Z,100982.06
2023-03-21T11:17:02.029Z,100996.00
2023-03-21T11:19:32.887Z,100997.56
2023-03-21T11:22:07.226Z,101005.94
2023-03-21T11:24:36.178Z,101010.91
2023-03-21T11:27:08.213Z,101005.97
2023-03-21T11:29:39.378Z,101008.44
2023-03-21T11:32:09.570Z,101015.25
2023-03-21T11:34:53.328Z,101025.31
2023-03-21T11:37:23.774Z,101008.22
2023-03-21T11:40:13.572Z,101011.16
2023-03-21T11:42:44.676Z,101009.31
2023-03-21T11:45:18.995Z,100998.75
2023-03-21T11:47:49.525Z,100997.56
2023-03-21T11:50:37.644Z,101009.19
2023-03-21T11:53:42.789Z,100995.00
2023-03-21T11:56:27.686Z,101000.84
2023-03-21T11:59:18.385Z,101004.78
2023-03-21T12:02:16.926Z,101002.59
2023-03-21T12:04:54.045Z,100997.53
2023-03-21T12:07:33.632Z,101004.72
2023-03-21T12:10:28.868Z,100993.63
2023-03-21T12:13:21.430Z,101005.09
2023-03-21T12:15:57.784Z,100991.84
2023-03-21T12:18:56.679Z,101004.09
2023-03-21T12:21:31.497Z,100998.41
2023-03-21T12:24:02.453Z,100997.78
2023-03-21T12:26:33.095Z,100987.16
2023-03-21T12:29:27.074Z,100987.06
2023-03-21T12:32:16.487Z,100991.25
2023-03-21T12:35:20.882Z,100984.38
2023-03-21T12:37:48.428Z,100979.28
2023-03-21T12:40:56.452Z,100977.97
2023-03-21T12:43:42.832Z,100967.25
2023-03-21T12:46:22.701Z,100969.06
2023-03-21T12:49:00.410Z,100970.41
2023-03-21T12:51:36.880Z,100971.16
2023-03-21T12:54:17.752Z,100974.41
2023-03-21T12:57:13.202Z,100985.06
2023-03-21T12:59:56.096Z,100979.13
2023-03-21T13:02:37.837Z,100966.44
2023-03-21T13:05:43.670Z,100975.69
2023-03-21T13:08:24.684Z,100969.50
2023-03-21T13:10:52.509Z,100964.97
2023-03-21T13:13:36.155Z,100963.13
2023-03-21T13:16:16.310Z,100962.28
2023-03-21T13:18:51.507Z,100952.69
2023-03-21T13:21:24.468Z,100953.97
2023-03-21T13:24:17.708Z,100946.50
2023-03-21T13:26:52.355Z,100949.13
2023-03-21T13:29:27.204Z,100945.63
2023-03-21T13:31:59.456Z,100949.91
2023-03-21T13:34:27.486Z,100938.25
2023-03-21T13:36:58.001Z,100955.56
2023-03-21T13:39:28.853Z,100943.31
2023-03-21T13:42:03.857Z,100939.75
2023-03-21T13:44:34.152Z,100936.25
2023-03-21T13:47:03.513Z,100942.38
2023-03-21T13:49:36.373Z,100934.53
2023-03-21T13:52:10.047Z,100932.06
2023-03-21T13:54:56.167Z,100936.72
2023-03-21T13:57:38.779Z,100937.47
2023-03-21T14:00:32.095Z,100930.50
2023-03-21T14:03:12.642Z,100920.00
2023-03-21T14:05:40.522Z,100930.31
2023-03-21T14:08:15.797Z,100913.97
2023-03-21T14:10:52.582Z,100916.56
2023-03-21T14:13:23.285Z,100924.63
2023-03-21T14:16:00.044Z,100920.66
2023-03-21T14:18:52.492Z,100915.78
2023-03-21T14:21:24.794Z,100912.22
2023-03-21T14:24:17.889Z,100917.94
2023-03-21T14:26:49.530Z,100919.66
2023-03-21T14:29:27.149Z,100907.41
2023-03-21T14:32:00.271Z,100912.00
2023-03-21T14:34:29.981Z,100911.19
2023-03-21T14:36:59.147Z,100907.81
2023-03-21T14:39:32.318Z,100905.25
2023-03-21T14:42:07.708Z,100905.16
2023-03-21T14:44:56.694Z,100904.69
2023-03-21T14:47:28.933Z,100912.75
2023-03-21T14:49:58.168Z,100915.44
2023-03-21T14:52:34.981Z,100918.94
2023-03-21T14:55:10.584Z,100916.16
2023-03-21T14:57:38.305Z,100908.09
2023-03-21T15:00:13.061Z,100908.81
2023-03-21T15:02:43.323Z,100909.53
2023-03-21T15:05:37.488Z,100913.78
2023-03-21T15:08:17.648Z,100911.91
2023-03-21T15:11:09.662Z,100908.41
2023-03-21T15:13:46.936Z,100905.75
2023-03-21T15:16:15.133Z,100902.13
2023-03-21T15:18:44.708Z,100902.16
2023-03-21T15:21:23.256Z,100899.72
2023-03-21T15:23:56.274Z,100903.34
2023-03-21T15:26:25.942Z,100899.28
2023-03-21T15:28:58.956Z,100894.66
2023-03-21T15:31:39.681Z,100883.06
2023-03-21T15:34:07.889Z,100896.16
2023-03-21T15:36:38.034Z,100885.53
2023-03-21T15:39:08.859Z,100896.06
2023-03-21T15:41:36.694Z,100900.72
2023-03-21T15:44:10.427Z,100892.13
2023-03-21T15:46:46.312Z,100891.28
2023-03-21T15:49:14.714Z,100906.09
2023-03-21T15:51:52.627Z,100895.47
2023-03-21T15:54:35.413Z,100893.88
2023-03-21T15:57:09.568Z,100889.34
2023-03-21T15:59:42.612Z,100884.09
2023-03-21T16:02:27.320Z,100891.00
2023-03-21T16:05:01.077Z,100896.41
2023-03-21T16:07:28.994Z,100886.94
2023-03-21T16:10:02.206Z,100889.56
2023-03-21T16:12:29.660Z,100888.66
2023-03-21T16:14:57.393Z,100886.94
2023-03-21T16:17:33.460Z,100895.69
2023-03-21T16:20:01.517Z,100889.34
2023-03-21T16:22:30.195Z,100874.72
2023-03-21T16:24:57.778Z,100879.28
2023-03-21T16:27:28.223Z,100881.16
2023-03-21T16:29:55.908Z,100883.19
2023-03-21T16:32:24.182Z,100886.91
2023-03-21T16:34:53.876Z,100882.59
2023-03-21T16:37:21.810Z,100880.97
2023-03-21T16:39:49.627Z,100879.47
2023-03-21T16:42:17.176Z,100879.47
2023-03-21T16:44:45.292Z,100871.63
2023-03-21T16:47:23.611Z,100878.97
2023-03-21T16:49:51.558Z,100883.31
2023-03-21T16:52:18.999Z,100882.50
2023-03-21T16:54:46.519Z,100881.66
2023-03-21T16:57:29.251Z,100870.38
2023-03-21T16:59:56.885Z,100865.06
2023-03-21T17:02:26.352Z,100866.91
2023-03-21T17:04:53.913Z,100872.28
2023-03-21T17:07:21.429Z,100861.78
2023-03-21T17:09:49.815Z,100865.28
2023-03-21T17:12:17.801Z,100860.91
2023-03-21T17:14:45.925Z,100857.50
2023-03-21T17:17:15.913Z,100864.50
2023-03-21T17:19:43.961Z,100864.53
2023-03-21T17:22:13.380Z,100876.97
2023-03-21T17:24:42.020Z,100864.78
2023-03-21T17:27:14.190Z,100868.31
2023-03-21T17:29:41.764Z,100860.47
2023-03-21T17:32:09.311Z,100855.22
2023-03-21T17:34:36.822Z,100848.19
2023-03-21T17:37:04.249Z,100856.13
2023-03-21T17:39:32.421Z,100853.59
2023-03-21T17:42:00.132Z,100858.94
2023-03-21T17:44:28.889Z,100848.41
2023-03-21T17:46:56.328Z,100852.88
2023-03-21T17:49:24.280Z,100853.75
2023-03-21T17:51:52.336Z,100853.78
2023-03-21T17:54:19.873Z,100858.13
2023-03-21T17:56:47.495Z,100855.50
2023-03-21T17:59:15.842Z,100862.63
2023-03-21T18:01:43.424Z,100851.22
2023-03-21T18:04:11.220Z,100860.88
2023-03-21T18:06:39.201Z,100852.97
2023-03-21T18:09:11.382Z,100853.00
2023-03-21T18:11:40.070Z,100863.53
2023-03-21T18:14:16.336Z,100867.91
2023-03-21T18:16:45.928Z,100867.91
2023-03-21T18:19:14.259Z,100869.66
2023-03-21T18:21:45.286Z,100867.06
2023-03-21T18:24:14.589Z,100874.06
2023-03-21T18:26:43.269Z,100874.06
2023-03-21T18:32:08.078Z,100869.69
2023-03-21T18:34:38.918Z,100888.06
2023-03-21T18:37:08.551Z,100892.38
2023-03-21T18:39:38.012Z,100897.63
2023-03-21T18:42:06.501Z,100895.00
2023-03-21T18:44:39.011Z,100889.72
2023-03-21T18:47:07.655Z,100895.00
2023-03-21T18:52:23.702Z,100897.63
2023-03-21T18:54:51.313Z,100894.13
2023-03-21T18:57:35.690Z,100884.53
2023-03-21T19:00:13.305Z,100874.91
2023-03-21T19:02:47.872Z,100877.53
2023-03-21T19:05:20.984Z,100892.34
2023-03-21T19:07:49.163Z,100883.63
2023-03-21T19:10:20.740Z,100884.44
2023-03-21T19:12:49.759Z,100883.63
2023-03-21T19:15:19.870Z,100885.31
2023-03-21T19:20:36.835Z,100881.88
2023-03-21T19:23:05.396Z,100874.00
2023-03-21T19:25:33.090Z,100873.13
2023-03-21T19:28:00.869Z,100867.91
2023-03-21T19:30:28.309Z,100862.63
2023-03-21T19:32:55.925Z,100864.38
2023-03-21T19:35:23.330Z,100853.88
2023-03-21T19:37:50.888Z,100860.00
2023-03-21T19:40:20.036Z,100849.47
2023-03-21T19:42:47.545Z,100838.13
2023-03-21T19:45:15.106Z,100841.59
2023-03-21T19:47:42.600Z,100843.28
2023-03-21T19:52:58.945Z,100833.75
2023-03-21T19:55:27.166Z,100835.50
2023-03-21T19:57:54.956Z,100826.69
2023-03-21T20:00:22.628Z,100823.22
2023-03-21T20:02:51.199Z,100820.59
2023-03-21T20:05:22.369Z,100815.28
2023-03-21T20:07:50.206Z,100825.63
2023-03-21T20:10:17.797Z,100818.75
2023-03-21T20:12:46.224Z,100820.53
2023-03-21T20:15:20.876Z,100823.00
2023-03-21T20:17:49.950Z,100820.50
2023-03-21T20:20:18.600Z,100825.72
2023-03-21T20:25:43.322Z,100816.88
2023-03-21T20:28:28.158Z,100811.63
2023-03-21T20:31:00.839Z,100811.63
2023-03-21T20:33:29.596Z,100822.13
2023-03-21T20:36:37.390Z,100823.75
2023-03-21T20:38:55.511Z,100816.78
2023-03-21T20:41:22.983Z,100802.84
2023-03-21T20:46:38.098Z,100824.63
2023-03-21T20:49:06.767Z,100820.34
2023-03-21T20:54:21.952Z,100841.28
2023-03-21T20:56:49.503Z,100843.03
2023-03-21T20:59:26.098Z,100836.13
2023-03-21T21:01:54.457Z,100838.69
2023-03-21T21:04:23.089Z,100845.66
2023-03-21T21:06:55.358Z,100836.19
2023-03-21T21:09:23.374Z,100843.94
2023-03-21T21:12:07.804Z,100842.28
2023-03-21T21:14:36.925Z,100837.81
2023-03-21T21:17:23.851Z,100827.47
2023-03-21T21:19:53.133Z,100827.56
2023-03-21T21:22:20.763Z,100821.44
2023-03-21T21:24:48.345Z,100814.47
2023-03-21T21:27:15.826Z,100810.09
2023-03-21T21:29:47.780Z,100805.75
2023-03-21T21:32:16.939Z,100797.03
2023-03-21T21:34:44.465Z,100787.41
2023-03-21T21:37:11.959Z,100794.41
2023-03-21T21:39:40.282Z,100776.09
2023-03-21T21:42:07.878Z,100775.22
2023-03-21T21:44:37.305Z,100781.31
2023-03-21T21:47:08.650Z,100782.19
2023-03-21T21:49:36.367Z,100791.72
2023-03-21T21:52:06.582Z,100779.53
2023-03-21T21:54:37.088Z,100773.41
2023-03-21T21:57:05.743Z,100778.66
2023-03-21T21:59:33.979Z,100775.16
2023-03-21T22:02:01.844Z,100767.28
2023-03-21T22:04:30.207Z,100761.19
2023-03-21T22:06:57.756Z,100754.22
2023-03-21T22:09:25.236Z,100747.28
2023-03-21T22:11:52.884Z,100748.97
2023-03-21T22:14:20.456Z,100749.84
2023-03-21T22:16:48.034Z,100747.22
2023-03-21T22:19:15.588Z,100747.22
2023-03-21T22:21:43.031Z,100734.06
2023-03-21T22:24:10.648Z,100730.66
2023-03-21T22:26:38.444Z,100717.56
2023-03-21T22:29:08.105Z,100717.56
2023-03-21T22:31:38.929Z,100728.03
2023-03-21T22:34:06.452Z,100712.25
2023-03-21T22:36:34.639Z,100716.69
2023-03-21T22:39:02.136Z,100704.50
2023-03-21T22:41:29.422Z,100704.50
2023-03-21T22:43:56.805Z,100709.72
2023-03-21T22:46:24.302Z,100707.09
2023-03-21T22:48:51.940Z,100702.75
2023-03-21T22:51:19.326Z,100687.06
2023-03-21T22:53:46.843Z,100699.31
2023-03-21T22:56:15.389Z,100701.00
2023-03-21T22:58:43.017Z,100700.13
2023-03-21T23:01:10.590Z,100698.38
2023-03-21T23:03:38.393Z,100708.03
2023-03-21T23:06:06.109Z,100701.88
2023-03-21T23:08:33.716Z,100698.38
2023-03-21T23:11:09.291Z,100700.13
2023-03-21T23:13:36.961Z,100698.38
2023-03-21T23:16:06.145Z,100677.47
2023-03-21T23:18:33.989Z,100682.69
2023-03-21T23:21:01.412Z,100694.03
2023-03-21T23:23:29.600Z,100696.63
2023-03-21T23:25:57.276Z,100701.00
2023-03-21T23:28:24.782Z,100681.81
2023-03-21T23:30:52.192Z,100687.06
2023-03-21T23:33:19.671Z,100686.22
2023-03-21T23:35:47.047Z,100692.28
2023-03-21T23:38:14.514Z,100685.31
2023-03-21T23:40:42.390Z,100688.84
2023-03-21T23:43:09.908Z,100683.56
2023-03-21T23:45:37.302Z,100672.25
2023-03-21T23:48:05.105Z,100685.31
2023-03-21T23:50:33.825Z,100675.72
2023-03-21T23:53:01.344Z,100676.63
2023-03-21T23:55:28.784Z,100677.50
2023-03-21T23:57:59.421Z,100680.94
